PWSweather.com
Personal Weather Stations
Station Observations
SHAHALMS1
Eftra, Falkenberg, HA

EftraFalkenberg, HA

Lat: 56.85, Lon: 12.65

Elevation: 140

Station Type:

http://hem.passagen.se/risarp101

High Low Average
Temperature 59.5°F15.3°C 45.0°F7.2°C 53.9°F12.2°C
Dew Point 56.6°F13.7°C 34.5°F1.4°C 46.6°F8.1°C
Winds 25.9 mph 41.7 kmh 1.4 mph 2.3 kmh 6.0 mph WSW9.7 kmh WSW
Wind Gusts 31.9 mph51.3 kmh 1.8 mph2.9 kmh 8.0 mph12.9 kmh
Humidity 94% 53% 78%
Pressure 29.50 in999.0 mb 29.15 in987.1 mb -
Precipitation 0.05 in1.3 mm - -
Hour Temp Dew Point Humidity Winds Wind Gusts Pressure Precip Precip Rate Daily Precip Total
12:00 AM 54.5°F12.5°C 52.2°F11.2°C 92% 1.5 mph S2.4 kmh S 1.8 mph2.9 kmh 29.27 in991.2 mb 0.00 in0.0 mm 0.00 in0.0 mm 0.00 in0.0 mm
12:10 AM 54.7°F12.6°C 52.4°F11.3°C 92% 1.5 mph S2.4 kmh S 1.8 mph2.9 kmh 29.24 in990.2 mb 0.00 in0.0 mm 0.00 in0.0 mm 0.00 in0.0 mm
12:20 AM 54.7°F12.6°C 52.7°F11.5°C 93% 1.5 mph S2.4 kmh S 1.8 mph2.9 kmh 29.24 in990.2 mb 0.00 in0.0 mm 0.00 in0.0 mm 0.00 in0.0 mm
12:30 AM 54.9°F12.7°C 52.9°F11.6°C 93% 1.5 mph S2.4 kmh S 1.8 mph2.9 kmh 29.24 in990.2 mb 0.00 in0.0 mm 0.00 in0.0 mm 0.00 in0.0 mm
12:40 AM 54.9°F12.7°C 52.9°F11.6°C 93% 1.5 mph S2.4 kmh S 1.8 mph2.9 kmh 29.24 in990.2 mb 0.00 in0.0 mm 0.00 in0.0 mm 0.00 in0.0 mm
12:50 AM 54.9°F12.7°C 52.9°F11.6°C 93% 1.5 mph S2.4 kmh S 1.8 mph2.9 kmh 29.24 in990.2 mb 0.00 in0.0 mm 0.00 in0.0 mm 0.00 in0.0 mm
01:00 AM 54.9°F12.7°C 52.9°F11.6°C 93% 1.5 mph S2.4 kmh S 1.8 mph2.9 kmh 29.24 in990.2 mb 0.00 in0.0 mm 0.00 in0.0 mm 0.00 in0.0 mm
01:10 AM 55.0°F12.8°C 53.1°F11.7°C 93% 1.5 mph S2.4 kmh S 1.8 mph2.9 kmh 29.21 in989.2 mb 0.00 in0.0 mm 0.00 in0.0 mm 0.00 in0.0 mm
01:20 AM 55.0°F12.8°C 53.1°F11.7°C 93% 1.5 mph S2.4 kmh S 1.8 mph2.9 kmh 29.21 in989.2 mb 0.00 in0.0 mm 0.00 in0.0 mm 0.00 in0.0 mm
01:30 AM 55.0°F12.8°C 53.1°F11.7°C 93% 1.5 mph S2.4 kmh S 1.8 mph2.9 kmh 29.21 in989.2 mb 0.00 in0.0 mm 0.00 in0.0 mm 0.00 in0.0 mm
01:40 AM 55.2°F12.9°C 53.2°F11.8°C 93% 1.5 mph S2.4 kmh S 1.8 mph2.9 kmh 29.21 in989.2 mb 0.00 in0.0 mm 0.00 in0.0 mm 0.00 in0.0 mm
01:50 AM 55.2°F12.9°C 53.2°F11.8°C 93% 1.5 mph S2.4 kmh S 1.8 mph2.9 kmh 29.21 in989.2 mb 0.00 in0.0 mm 0.00 in0.0 mm 0.00 in0.0 mm
02:00 AM 55.2°F12.9°C 53.2°F11.8°C 93% 1.5 mph S2.4 kmh S 1.8 mph2.9 kmh 29.18 in988.1 mb 0.00 in0.0 mm 0.00 in0.0 mm 0.00 in0.0 mm
02:10 AM 55.2°F12.9°C 53.2°F11.8°C 93% 1.5 mph S2.4 kmh S 1.8 mph2.9 kmh 29.21 in989.2 mb 0.00 in0.0 mm 0.00 in0.0 mm 0.00 in0.0 mm
02:20 AM 55.2°F12.9°C 53.2°F11.8°C 93% 1.5 mph S2.4 kmh S 1.8 mph2.9 kmh 29.21 in989.2 mb 0.00 in0.0 mm 0.00 in0.0 mm 0.00 in0.0 mm
02:30 AM 55.2°F12.9°C 53.2°F11.8°C 93% 1.5 mph S2.4 kmh S 1.8 mph2.9 kmh 29.18 in988.1 mb 0.00 in0.0 mm 0.00 in0.0 mm 0.00 in0.0 mm
02:40 AM 55.2°F12.9°C 53.2°F11.8°C 93% 1.5 mph S2.4 kmh S 1.8 mph2.9 kmh 29.18 in988.1 mb 0.00 in0.0 mm 0.00 in0.0 mm 0.00 in0.0 mm
02:50 AM 55.2°F12.9°C 53.2°F11.8°C 93% 1.5 mph S2.4 kmh S 1.8 mph2.9 kmh 29.18 in988.1 mb 0.00 in0.0 mm 0.00 in0.0 mm 0.00 in0.0 mm
03:00 AM 55.2°F12.9°C 53.2°F11.8°C 93% 1.5 mph S2.4 kmh S 1.8 mph2.9 kmh 29.18 in988.1 mb 0.00 in0.0 mm 0.00 in0.0 mm 0.00 in0.0 mm
03:10 AM 55.2°F12.9°C 53.2°F11.8°C 93% 1.5 mph S2.4 kmh S 1.8 mph2.9 kmh 29.18 in988.1 mb 0.00 in0.0 mm 0.00 in0.0 mm 0.00 in0.0 mm
03:20 AM 55.2°F12.9°C 53.2°F11.8°C 93% 1.5 mph S2.4 kmh S 1.8 mph2.9 kmh 29.18 in988.1 mb 0.00 in0.0 mm 0.00 in0.0 mm 0.00 in0.0 mm
03:30 AM 55.0°F12.8°C 53.1°F11.7°C 93% 1.5 mph S2.4 kmh S 1.8 mph2.9 kmh 29.18 in988.1 mb 0.00 in0.0 mm 0.00 in0.0 mm 0.00 in0.0 mm
03:40 AM 55.0°F12.8°C 53.1°F11.7°C 93% 1.5 mph S2.4 kmh S 1.8 mph2.9 kmh 29.15 in987.1 mb 0.00 in0.0 mm 0.00 in0.0 mm 0.00 in0.0 mm
03:50 AM 55.0°F12.8°C 53.1°F11.7°C 93% 1.5 mph S2.4 kmh S 1.8 mph2.9 kmh 29.15 in987.1 mb 0.00 in0.0 mm 0.00 in0.0 mm 0.00 in0.0 mm
04:00 AM 55.0°F12.8°C 53.1°F11.7°C 93% 1.5 mph S2.4 kmh S 1.8 mph2.9 kmh 29.15 in987.1 mb 0.00 in0.0 mm 0.00 in0.0 mm 0.00 in0.0 mm
04:10 AM 55.0°F12.8°C 53.1°F11.7°C 93% 1.5 mph S2.4 kmh S 1.8 mph2.9 kmh 29.15 in987.1 mb 0.00 in0.0 mm 0.00 in0.0 mm 0.00 in0.0 mm
04:20 AM 55.0°F12.8°C 53.3°F11.8°C 94% 1.5 mph S2.4 kmh S 1.8 mph2.9 kmh 29.15 in987.1 mb 0.00 in0.0 mm 0.00 in0.0 mm 0.00 in0.0 mm
04:30 AM 54.9°F12.7°C 53.2°F11.8°C 94% 1.5 mph S2.4 kmh S 1.8 mph2.9 kmh 29.15 in987.1 mb 0.00 in0.0 mm 0.00 in0.0 mm 0.00 in0.0 mm
04:40 AM 54.9°F12.7°C 53.2°F11.8°C 94% 1.5 mph S2.4 kmh S 1.8 mph2.9 kmh 29.18 in988.1 mb 0.00 in0.0 mm 0.00 in0.0 mm 0.00 in0.0 mm
04:50 AM 54.9°F12.7°C 52.9°F11.6°C 93% 1.5 mph S2.4 kmh S 1.8 mph2.9 kmh 29.18 in988.1 mb 0.00 in0.0 mm 0.00 in0.0 mm 0.00 in0.0 mm
05:00 AM 54.7°F12.6°C 52.7°F11.5°C 93% 1.5 mph S2.4 kmh S 1.8 mph2.9 kmh 29.18 in988.1 mb 0.00 in0.0 mm 0.00 in0.0 mm 0.00 in0.0 mm
05:10 AM 54.7°F12.6°C 52.7°F11.5°C 93% 1.5 mph S2.4 kmh S 1.8 mph2.9 kmh 29.21 in989.2 mb 0.00 in0.0 mm 0.00 in0.0 mm 0.00 in0.0 mm
05:20 AM 54.5°F12.5°C 52.5°F11.4°C 93% 1.5 mph S2.4 kmh S 1.8 mph2.9 kmh 29.21 in989.2 mb 0.00 in0.0 mm 0.00 in0.0 mm 0.00 in0.0 mm
05:30 AM 54.5°F12.5°C 52.5°F11.4°C 93% 1.5 mph S2.4 kmh S 1.8 mph2.9 kmh 29.21 in989.2 mb 0.00 in0.0 mm 0.00 in0.0 mm 0.00 in0.0 mm
05:40 AM 54.3°F12.4°C 52.3°F11.3°C 93% 1.5 mph S2.4 kmh S 1.8 mph2.9 kmh 29.18 in988.1 mb 0.00 in0.0 mm 0.00 in0.0 mm 0.00 in0.0 mm
05:50 AM 54.1°F12.3°C 52.2°F11.2°C 93% 1.5 mph S2.4 kmh S 1.8 mph2.9 kmh 29.18 in988.1 mb 0.00 in0.0 mm 0.00 in0.0 mm 0.00 in0.0 mm
06:00 AM 53.8°F12.1°C 51.8°F11.0°C 93% 1.5 mph S2.4 kmh S 1.8 mph2.9 kmh 29.21 in989.2 mb 0.00 in0.0 mm 0.00 in0.0 mm 0.00 in0.0 mm
06:10 AM 53.6°F12.0°C 51.6°F10.9°C 93% 1.5 mph S2.4 kmh S 1.8 mph2.9 kmh 29.18 in988.1 mb 0.00 in0.0 mm 0.00 in0.0 mm 0.00 in0.0 mm
06:20 AM 53.4°F11.9°C 51.4°F10.8°C 93% 1.5 mph S2.4 kmh S 1.8 mph2.9 kmh 29.18 in988.1 mb 0.00 in0.0 mm 0.00 in0.0 mm 0.00 in0.0 mm
06:30 AM 53.2°F11.8°C 51.3°F10.7°C 93% 1.5 mph S2.4 kmh S 1.8 mph2.9 kmh 29.18 in988.1 mb 0.00 in0.0 mm 0.00 in0.0 mm 0.00 in0.0 mm
06:40 AM 53.1°F11.7°C 51.1°F10.6°C 93% 1.5 mph S2.4 kmh S 1.8 mph2.9 kmh 29.18 in988.1 mb 0.00 in0.0 mm 0.00 in0.0 mm 0.00 in0.0 mm
06:50 AM 53.1°F11.7°C 51.1°F10.6°C 93% 1.5 mph S2.4 kmh S 1.8 mph2.9 kmh 29.18 in988.1 mb 0.00 in0.0 mm 0.00 in0.0 mm 0.00 in0.0 mm
07:00 AM 53.1°F11.7°C 51.1°F10.6°C 93% 1.5 mph S2.4 kmh S 1.8 mph2.9 kmh 29.18 in988.1 mb 0.00 in0.0 mm 0.00 in0.0 mm 0.00 in0.0 mm
07:10 AM 53.1°F11.7°C 51.1°F10.6°C 93% 1.5 mph S2.4 kmh S 1.8 mph2.9 kmh 29.18 in988.1 mb 0.00 in0.0 mm 0.00 in0.0 mm 0.00 in0.0 mm
07:20 AM 53.2°F11.8°C 51.6°F10.9°C 94% 1.5 mph S2.4 kmh S 1.8 mph2.9 kmh 29.18 in988.1 mb 0.00 in0.0 mm 0.00 in0.0 mm 0.00 in0.0 mm
07:30 AM 53.2°F11.8°C 51.6°F10.9°C 94% 1.5 mph S2.4 kmh S 1.8 mph2.9 kmh 29.18 in988.1 mb 0.00 in0.0 mm 0.00 in0.0 mm 0.00 in0.0 mm
07:40 AM 53.4°F11.9°C 51.7°F10.9°C 94% 1.5 mph S2.4 kmh S 1.8 mph2.9 kmh 29.18 in988.1 mb 0.00 in0.0 mm 0.00 in0.0 mm 0.00 in0.0 mm
07:50 AM 53.6°F12.0°C 51.9°F11.1°C 94% 1.5 mph S2.4 kmh S 1.8 mph2.9 kmh 29.18 in988.1 mb 0.00 in0.0 mm 0.00 in0.0 mm 0.00 in0.0 mm
08:00 AM 53.6°F12.0°C 51.9°F11.1°C 94% 1.5 mph S2.4 kmh S 1.8 mph2.9 kmh 29.18 in988.1 mb 0.00 in0.0 mm 0.00 in0.0 mm 0.00 in0.0 mm
08:10 AM 53.8°F12.1°C 52.1°F11.2°C 94% 1.5 mph S2.4 kmh S 1.8 mph2.9 kmh 29.21 in989.2 mb 0.00 in0.0 mm 0.00 in0.0 mm 0.00 in0.0 mm
08:20 AM 53.8°F12.1°C 52.1°F11.2°C 94% 1.5 mph S2.4 kmh S 1.8 mph2.9 kmh 29.21 in989.2 mb 0.00 in0.0 mm 0.00 in0.0 mm 0.00 in0.0 mm
08:30 AM 54.0°F12.2°C 52.3°F11.3°C 94% 1.5 mph S2.4 kmh S 1.8 mph2.9 kmh 29.21 in989.2 mb 0.00 in0.0 mm 0.00 in0.0 mm 0.00 in0.0 mm
08:40 AM 54.0°F12.2°C 52.3°F11.3°C 94% 1.5 mph S2.4 kmh S 1.8 mph2.9 kmh 29.21 in989.2 mb 0.00 in0.0 mm 0.00 in0.0 mm 0.00 in0.0 mm
08:50 AM 54.1°F12.3°C 52.5°F11.4°C 94% 1.5 mph S2.4 kmh S 1.8 mph2.9 kmh 29.21 in989.2 mb 0.00 in0.0 mm 0.00 in0.0 mm 0.00 in0.0 mm
09:00 AM 54.5°F12.5°C 52.8°F11.6°C 94% 1.5 mph S2.4 kmh S 1.8 mph2.9 kmh 29.21 in989.2 mb 0.00 in0.0 mm 0.00 in0.0 mm 0.00 in0.0 mm
09:10 AM 54.7°F12.6°C 53.0°F11.7°C 94% 1.5 mph S2.4 kmh S 1.8 mph2.9 kmh 29.21 in989.2 mb 0.00 in0.0 mm 0.00 in0.0 mm 0.00 in0.0 mm
09:20 AM 54.9°F12.7°C 53.2°F11.8°C 94% 1.5 mph S2.4 kmh S 1.8 mph2.9 kmh 29.21 in989.2 mb 0.00 in0.0 mm 0.00 in0.0 mm 0.00 in0.0 mm
09:30 AM 54.9°F12.7°C 53.2°F11.8°C 94% 3.5 mph NW5.6 kmh NW 4.3 mph6.9 kmh 29.24 in990.2 mb 0.00 in0.0 mm 0.00 in0.0 mm 0.00 in0.0 mm
09:40 AM 54.9°F12.7°C 53.2°F11.8°C 94% 4.0 mph NW6.4 kmh NW 6.8 mph10.9 kmh 29.24 in990.2 mb 0.00 in0.0 mm 0.00 in0.0 mm 0.00 in0.0 mm
09:50 AM 55.0°F12.8°C 53.3°F11.8°C 94% 5.5 mph NW8.9 kmh NW 6.8 mph10.9 kmh 29.24 in990.2 mb 0.00 in0.0 mm 0.00 in0.0 mm 0.00 in0.0 mm
10:00 AM 55.8°F13.2°C 54.1°F12.3°C 94% 5.5 mph NW8.9 kmh NW 6.8 mph10.9 kmh 29.24 in990.2 mb 0.00 in0.0 mm 0.00 in0.0 mm 0.00 in0.0 mm
10:10 AM 56.1°F13.4°C 54.4°F12.4°C 94% 2.9 mph NW4.7 kmh NW 3.6 mph5.8 kmh 29.21 in989.2 mb 0.00 in0.0 mm 0.00 in0.0 mm 0.00 in0.0 mm
10:20 AM 56.5°F13.6°C 54.8°F12.7°C 94% 2.9 mph NW4.7 kmh NW 3.6 mph5.8 kmh 29.21 in989.2 mb 0.00 in0.0 mm 0.00 in0.0 mm 0.00 in0.0 mm
10:30 AM 56.7°F13.7°C 55.0°F12.8°C 94% 2.9 mph NW4.7 kmh NW 3.6 mph5.8 kmh 29.21 in989.2 mb 0.00 in0.0 mm 0.00 in0.0 mm 0.00 in0.0 mm
10:40 AM 57.0°F13.9°C 55.0°F12.8°C 93% 2.2 mph W3.5 kmh W 7.5 mph12.1 kmh 29.21 in989.2 mb 0.00 in0.0 mm 0.00 in0.0 mm 0.00 in0.0 mm
10:50 AM 57.6°F14.2°C 55.6°F13.1°C 93% 1.4 mph NW2.3 kmh NW 5.4 mph8.7 kmh 29.21 in989.2 mb 0.00 in0.0 mm 0.00 in0.0 mm 0.00 in0.0 mm
11:00 AM 57.9°F14.4°C 55.6°F13.1°C 92% 6.9 mph WNW11.1 kmh WNW 11.1 mph17.9 kmh 29.24 in990.2 mb 0.00 in0.0 mm 0.00 in0.0 mm 0.00 in0.0 mm
11:10 AM 57.9°F14.4°C 55.3°F12.9°C 91% 4.7 mph WNW7.6 kmh WNW 8.9 mph14.3 kmh 29.21 in989.2 mb 0.00 in0.0 mm 0.00 in0.0 mm 0.00 in0.0 mm
11:20 AM 58.5°F14.7°C 55.8°F13.2°C 91% 4.4 mph NW7.1 kmh NW 5.4 mph8.7 kmh 29.21 in989.2 mb 0.00 in0.0 mm 0.00 in0.0 mm 0.00 in0.0 mm
11:30 AM 59.0°F15.0°C 56.4°F13.6°C 91% 5.2 mph WNW8.4 kmh WNW 9.7 mph15.6 kmh 29.24 in990.2 mb 0.00 in0.0 mm 0.00 in0.0 mm 0.00 in0.0 mm
11:40 AM 59.5°F15.3°C 56.6°F13.7°C 90% 3.8 mph W6.1 kmh W 8.9 mph14.3 kmh 29.27 in991.2 mb 0.00 in0.0 mm 0.00 in0.0 mm 0.00 in0.0 mm
11:50 AM 59.2°F15.1°C 55.3°F12.9°C 87% 2.6 mph W4.2 kmh W 3.2 mph5.1 kmh 29.27 in991.2 mb 0.00 in0.0 mm 0.00 in0.0 mm 0.00 in0.0 mm
12:00 PM 59.0°F15.0°C 54.5°F12.5°C 85% 2.6 mph NW4.2 kmh NW 3.2 mph5.1 kmh 29.27 in991.2 mb 0.00 in0.0 mm 0.00 in0.0 mm 0.00 in0.0 mm
12:10 PM 59.0°F15.0°C 54.2°F12.3°C 84% 2.6 mph NW4.2 kmh NW 3.2 mph5.1 kmh 29.27 in991.2 mb 0.00 in0.0 mm 0.00 in0.0 mm 0.00 in0.0 mm
12:20 PM 59.0°F15.0°C 54.2°F12.3°C 84% 7.2 mph W11.6 kmh W 11.8 mph19.0 kmh 29.27 in991.2 mb 0.00 in0.0 mm 0.00 in0.0 mm 0.00 in0.0 mm
12:30 PM 58.8°F14.9°C 53.7°F12.1°C 83% 6.9 mph W11.1 kmh W 14.0 mph22.5 kmh 29.27 in991.2 mb 0.00 in0.0 mm 0.00 in0.0 mm 0.00 in0.0 mm
12:40 PM 58.1°F14.5°C 51.6°F10.9°C 79% 11.3 mph W18.2 kmh W 14.0 mph22.5 kmh 29.30 in992.2 mb 0.00 in0.0 mm 0.00 in0.0 mm 0.00 in0.0 mm
12:50 PM 58.1°F14.5°C 51.3°F10.7°C 78% 11.9 mph W19.2 kmh W 19.7 mph31.7 kmh 29.30 in992.2 mb 0.05 in1.3 mm 0.30 in7.6 mm 0.05 in1.3 mm
01:00 PM 58.6°F14.8°C 52.1°F11.2°C 79% 6.7 mph W10.8 kmh W 19.7 mph31.7 kmh 29.30 in992.2 mb 0.05 in1.3 mm 0.00 in0.0 mm 0.05 in1.3 mm
01:10 PM 58.5°F14.7°C 51.3°F10.7°C 77% 9.3 mph WNW15.0 kmh WNW 19.7 mph31.7 kmh 29.30 in992.2 mb 0.05 in1.3 mm 0.00 in0.0 mm 0.05 in1.3 mm
01:20 PM 58.6°F14.8°C 50.7°F10.4°C 75% 9.5 mph WNW15.3 kmh WNW 22.9 mph36.9 kmh 29.30 in992.2 mb 0.05 in1.3 mm 0.00 in0.0 mm 0.05 in1.3 mm
01:30 PM 58.5°F14.7°C 49.8°F9.9°C 73% 8.8 mph WNW14.2 kmh WNW 27.2 mph43.8 kmh 29.30 in992.2 mb 0.05 in1.3 mm 0.00 in0.0 mm 0.05 in1.3 mm
01:40 PM 58.3°F14.6°C 48.5°F9.2°C 70% 10.7 mph WNW17.2 kmh WNW 26.5 mph42.6 kmh 29.27 in991.2 mb 0.05 in1.3 mm 0.00 in0.0 mm 0.05 in1.3 mm
01:50 PM 57.7°F14.3°C 47.2°F8.4°C 68% 10.4 mph W16.7 kmh W 26.5 mph42.6 kmh 29.27 in991.2 mb 0.00 in0.0 mm 0.00 in0.0 mm 0.05 in1.3 mm
02:00 PM 57.4°F14.1°C 46.5°F8.1°C 67% 7.3 mph NW11.7 kmh NW 8.9 mph14.3 kmh 29.30 in992.2 mb 0.00 in0.0 mm 0.00 in0.0 mm 0.05 in1.3 mm
02:10 PM 57.0°F13.9°C 45.8°F7.7°C 66% 8.1 mph NW13.0 kmh NW 10.4 mph16.7 kmh 29.33 in993.2 mb 0.00 in0.0 mm 0.00 in0.0 mm 0.05 in1.3 mm
02:20 PM 57.0°F13.9°C 45.4°F7.4°C 65% 7.5 mph W12.1 kmh W 15.7 mph25.3 kmh 29.33 in993.2 mb 0.00 in0.0 mm 0.00 in0.0 mm 0.05 in1.3 mm
02:30 PM 56.8°F13.8°C 45.6°F7.6°C 66% 6.5 mph W10.5 kmh W 20.4 mph32.8 kmh 29.33 in993.2 mb 0.00 in0.0 mm 0.00 in0.0 mm 0.05 in1.3 mm
02:40 PM 56.3°F13.5°C 43.9°F6.6°C 63% 9.5 mph W15.3 kmh W 17.5 mph28.2 kmh 29.33 in993.2 mb 0.00 in0.0 mm 0.00 in0.0 mm 0.05 in1.3 mm
02:50 PM 56.1°F13.4°C 44.1°F6.7°C 64% 10.3 mph W16.6 kmh W 17.5 mph28.2 kmh 29.33 in993.2 mb 0.00 in0.0 mm 0.00 in0.0 mm 0.05 in1.3 mm
03:00 PM 55.8°F13.2°C 43.3°F6.3°C 63% 11.4 mph NW18.3 kmh NW 15.7 mph25.3 kmh 29.33 in993.2 mb 0.00 in0.0 mm 0.00 in0.0 mm 0.05 in1.3 mm
03:10 PM 55.8°F13.2°C 43.3°F6.3°C 63% 11.7 mph NW18.8 kmh NW 15.7 mph25.3 kmh 29.33 in993.2 mb 0.00 in0.0 mm 0.00 in0.0 mm 0.05 in1.3 mm
03:20 PM 55.6°F13.1°C 42.8°F6.0°C 62% 8.0 mph NW12.9 kmh NW 10.4 mph16.7 kmh 29.33 in993.2 mb 0.00 in0.0 mm 0.00 in0.0 mm 0.05 in1.3 mm
03:30 PM 55.2°F12.9°C 42.0°F5.6°C 61% 7.9 mph W12.7 kmh W 9.7 mph15.6 kmh 29.33 in993.2 mb 0.00 in0.0 mm 0.00 in0.0 mm 0.05 in1.3 mm
03:40 PM 55.2°F12.9°C 42.0°F5.6°C 61% 9.4 mph WNW15.1 kmh WNW 12.9 mph20.8 kmh 29.36 in994.2 mb 0.00 in0.0 mm 0.00 in0.0 mm 0.05 in1.3 mm
03:50 PM 55.0°F12.8°C 41.8°F5.4°C 61% 7.9 mph NW12.7 kmh NW 11.8 mph19.0 kmh 29.36 in994.2 mb 0.00 in0.0 mm 0.00 in0.0 mm 0.05 in1.3 mm
04:00 PM 54.9°F12.7°C 41.7°F5.4°C 61% 7.0 mph NNW11.3 kmh NNW 8.6 mph13.8 kmh 29.33 in993.2 mb 0.00 in0.0 mm 0.00 in0.0 mm 0.05 in1.3 mm
04:10 PM 55.0°F12.8°C 42.3°F5.7°C 62% 9.6 mph W15.4 kmh W 11.8 mph19.0 kmh 29.36 in994.2 mb 0.00 in0.0 mm 0.00 in0.0 mm 0.05 in1.3 mm
04:20 PM 54.9°F12.7°C 41.2°F5.1°C 60% 9.6 mph W15.4 kmh W 11.8 mph19.0 kmh 29.36 in994.2 mb 0.00 in0.0 mm 0.00 in0.0 mm 0.05 in1.3 mm
04:30 PM 54.9°F12.7°C 41.2°F5.1°C 60% 9.6 mph W15.4 kmh W 11.8 mph19.0 kmh 29.36 in994.2 mb 0.00 in0.0 mm 0.00 in0.0 mm 0.05 in1.3 mm
04:40 PM 54.7°F12.6°C 40.2°F4.6°C 58% 9.6 mph W15.4 kmh W 11.8 mph19.0 kmh 29.36 in994.2 mb 0.00 in0.0 mm 0.00 in0.0 mm 0.05 in1.3 mm
04:50 PM 54.3°F12.4°C 39.8°F4.3°C 58% 6.1 mph W9.8 kmh W 7.5 mph12.1 kmh 29.36 in994.2 mb 0.00 in0.0 mm 0.00 in0.0 mm 0.05 in1.3 mm
05:00 PM 54.1°F12.3°C 38.8°F3.8°C 56% 12.2 mph WNW19.6 kmh WNW 20.8 mph33.5 kmh 29.36 in994.2 mb 0.00 in0.0 mm 0.00 in0.0 mm 0.05 in1.3 mm
05:10 PM 54.0°F12.2°C 38.6°F3.7°C 56% 14.1 mph W22.7 kmh W 20.4 mph32.8 kmh 29.36 in994.2 mb 0.00 in0.0 mm 0.00 in0.0 mm 0.05 in1.3 mm
05:20 PM 53.8°F12.1°C 38.4°F3.6°C 56% 7.9 mph NW12.7 kmh NW 10.4 mph16.7 kmh 29.36 in994.2 mb 0.00 in0.0 mm 0.00 in0.0 mm 0.05 in1.3 mm
05:30 PM 53.6°F12.0°C 37.8°F3.2°C 55% 7.0 mph W11.3 kmh W 8.6 mph13.8 kmh 29.36 in994.2 mb 0.00 in0.0 mm 0.00 in0.0 mm 0.05 in1.3 mm
05:40 PM 53.2°F11.8°C 37.0°F2.8°C 54% 7.0 mph W11.3 kmh W 8.6 mph13.8 kmh 29.36 in994.2 mb 0.00 in0.0 mm 0.00 in0.0 mm 0.05 in1.3 mm
05:50 PM 52.9°F11.6°C 37.1°F2.8°C 55% 7.0 mph W11.3 kmh W 8.6 mph13.8 kmh 29.36 in994.2 mb 0.00 in0.0 mm 0.00 in0.0 mm 0.05 in1.3 mm
06:00 PM 52.5°F11.4°C 37.3°F2.9°C 56% 7.0 mph W11.3 kmh W 8.6 mph13.8 kmh 29.39 in995.3 mb 0.00 in0.0 mm 0.00 in0.0 mm 0.05 in1.3 mm
06:10 PM 52.3°F11.3°C 36.6°F2.6°C 55% 7.0 mph W11.3 kmh W 8.6 mph13.8 kmh 29.41 in995.9 mb 0.00 in0.0 mm 0.00 in0.0 mm 0.05 in1.3 mm
06:20 PM 52.2°F11.2°C 36.9°F2.7°C 56% 7.0 mph W11.3 kmh W 8.6 mph13.8 kmh 29.41 in995.9 mb 0.00 in0.0 mm 0.00 in0.0 mm 0.05 in1.3 mm
06:30 PM 51.8°F11.0°C 35.7°F2.1°C 54% 7.0 mph W11.3 kmh W 8.6 mph13.8 kmh 29.41 in995.9 mb 0.00 in0.0 mm 0.00 in0.0 mm 0.05 in1.3 mm
06:40 PM 51.6°F10.9°C 35.0°F1.7°C 53% 7.0 mph W11.3 kmh W 8.6 mph13.8 kmh 29.41 in995.9 mb 0.00 in0.0 mm 0.00 in0.0 mm 0.05 in1.3 mm
06:50 PM 51.3°F10.7°C 34.7°F1.5°C 53% 7.0 mph W11.3 kmh W 8.6 mph13.8 kmh 29.41 in995.9 mb 0.00 in0.0 mm 0.00 in0.0 mm 0.05 in1.3 mm
07:00 PM 51.3°F10.7°C 34.7°F1.5°C 53% 7.0 mph W11.3 kmh W 8.6 mph13.8 kmh 29.41 in995.9 mb 0.00 in0.0 mm 0.00 in0.0 mm 0.05 in1.3 mm
07:10 PM 51.1°F10.6°C 34.5°F1.4°C 53% 8.4 mph NW13.5 kmh NW 10.4 mph16.7 kmh 29.39 in995.3 mb 0.00 in0.0 mm 0.00 in0.0 mm 0.05 in1.3 mm
07:20 PM 51.1°F10.6°C 34.5°F1.4°C 53% 12.3 mph WSW19.8 kmh WSW 31.9 mph51.3 kmh 29.39 in995.3 mb 0.00 in0.0 mm 0.00 in0.0 mm 0.05 in1.3 mm
07:30 PM 50.9°F10.5°C 34.8°F1.6°C 54% 25.9 mph S41.7 kmh S 31.9 mph51.3 kmh 29.41 in995.9 mb 0.00 in0.0 mm 0.00 in0.0 mm 0.05 in1.3 mm
07:40 PM 50.9°F10.5°C 34.8°F1.6°C 54% 25.9 mph S41.7 kmh S 31.9 mph51.3 kmh 29.45 in997.3 mb 0.00 in0.0 mm 0.00 in0.0 mm 0.05 in1.3 mm
07:50 PM 50.9°F10.5°C 34.8°F1.6°C 54% 13.1 mph NW21.1 kmh NW 16.1 mph25.9 kmh 29.45 in997.3 mb 0.00 in0.0 mm 0.00 in0.0 mm 0.05 in1.3 mm
08:00 PM 50.7°F10.4°C 34.7°F1.5°C 54% 12.2 mph NW19.6 kmh NW 16.1 mph25.9 kmh 29.45 in997.3 mb 0.00 in0.0 mm 0.00 in0.0 mm 0.05 in1.3 mm
08:10 PM 50.7°F10.4°C 34.7°F1.5°C 54% 10.2 mph W16.4 kmh W 12.5 mph20.1 kmh 29.45 in997.3 mb 0.00 in0.0 mm 0.00 in0.0 mm 0.05 in1.3 mm
08:20 PM 50.7°F10.4°C 34.7°F1.5°C 54% 10.2 mph W16.4 kmh W 12.5 mph20.1 kmh 29.45 in997.3 mb 0.00 in0.0 mm 0.00 in0.0 mm 0.05 in1.3 mm
08:30 PM 50.7°F10.4°C 34.7°F1.5°C 54% 10.2 mph W16.4 kmh W 12.5 mph20.1 kmh 29.45 in997.3 mb 0.00 in0.0 mm 0.00 in0.0 mm 0.05 in1.3 mm
08:40 PM 50.7°F10.4°C 34.7°F1.5°C 54% 7.9 mph W12.7 kmh W 9.7 mph15.6 kmh 29.45 in997.3 mb 0.00 in0.0 mm 0.00 in0.0 mm 0.05 in1.3 mm
08:50 PM 50.9°F10.5°C 35.3°F1.8°C 55% 9.2 mph W14.8 kmh W 11.5 mph18.5 kmh 29.45 in997.3 mb 0.00 in0.0 mm 0.00 in0.0 mm 0.05 in1.3 mm
09:00 PM 50.2°F10.1°C 35.1°F1.7°C 56% 9.3 mph W15.0 kmh W 11.5 mph18.5 kmh 29.45 in997.3 mb 0.00 in0.0 mm 0.00 in0.0 mm 0.05 in1.3 mm
09:10 PM 49.5°F9.7°C 35.3°F1.8°C 58% 9.3 mph W15.0 kmh W 11.5 mph18.5 kmh 29.47 in998.0 mb 0.00 in0.0 mm 0.00 in0.0 mm 0.05 in1.3 mm
09:20 PM 48.7°F9.3°C 35.5°F1.9°C 60% 9.3 mph W15.0 kmh W 11.5 mph18.5 kmh 29.47 in998.0 mb 0.00 in0.0 mm 0.00 in0.0 mm 0.05 in1.3 mm
09:30 PM 48.2°F9.0°C 35.4°F1.9°C 61% 9.3 mph W15.0 kmh W 11.5 mph18.5 kmh 29.47 in998.0 mb 0.00 in0.0 mm 0.00 in0.0 mm 0.05 in1.3 mm
09:40 PM 47.5°F8.6°C 35.1°F1.7°C 62% 9.3 mph W15.0 kmh W 11.5 mph18.5 kmh 29.47 in998.0 mb 0.00 in0.0 mm 0.00 in0.0 mm 0.05 in1.3 mm
09:50 PM 46.9°F8.3°C 35.0°F1.7°C 63% 9.3 mph W15.0 kmh W 11.5 mph18.5 kmh 29.47 in998.0 mb 0.00 in0.0 mm 0.00 in0.0 mm 0.05 in1.3 mm
10:00 PM 46.2°F7.9°C 34.7°F1.5°C 64% 9.3 mph W15.0 kmh W 11.5 mph18.5 kmh 29.47 in998.0 mb 0.00 in0.0 mm 0.00 in0.0 mm 0.05 in1.3 mm
10:10 PM 45.7°F7.6°C 34.6°F1.4°C 65% 9.3 mph W15.0 kmh W 11.5 mph18.5 kmh 29.47 in998.0 mb 0.00 in0.0 mm 0.00 in0.0 mm 0.05 in1.3 mm
10:20 PM 45.0°F7.2°C 34.7°F1.5°C 67% 9.3 mph W15.0 kmh W 11.5 mph18.5 kmh 29.47 in998.0 mb 0.00 in0.0 mm 0.00 in0.0 mm 0.05 in1.3 mm
10:30 PM 45.1°F7.3°C 35.6°F2.0°C 69% 9.3 mph W15.0 kmh W 11.5 mph18.5 kmh 29.47 in998.0 mb 0.00 in0.0 mm 0.00 in0.0 mm 0.05 in1.3 mm
10:40 PM 45.3°F7.4°C 36.5°F2.5°C 71% 9.3 mph W15.0 kmh W 11.5 mph18.5 kmh 29.47 in998.0 mb 0.00 in0.0 mm 0.00 in0.0 mm 0.05 in1.3 mm
10:50 PM 46.4°F8.0°C 36.4°F2.4°C 68% 9.3 mph W15.0 kmh W 11.5 mph18.5 kmh 29.47 in998.0 mb 0.00 in0.0 mm 0.00 in0.0 mm 0.05 in1.3 mm
11:00 PM 47.1°F8.4°C 36.7°F2.6°C 67% 9.3 mph W15.0 kmh W 11.5 mph18.5 kmh 29.47 in998.0 mb 0.00 in0.0 mm 0.00 in0.0 mm 0.05 in1.3 mm
11:10 PM 47.5°F8.6°C 36.7°F2.6°C 66% 9.3 mph W15.0 kmh W 11.5 mph18.5 kmh 29.47 in998.0 mb 0.00 in0.0 mm 0.00 in0.0 mm 0.05 in1.3 mm
11:20 PM 47.7°F8.7°C 36.1°F2.3°C 64% 6.4 mph W10.3 kmh W 7.9 mph12.7 kmh 29.47 in998.0 mb 0.00 in0.0 mm 0.00 in0.0 mm 0.05 in1.3 mm
11:30 PM 47.7°F8.7°C 36.1°F2.3°C 64% 6.4 mph W10.3 kmh W 7.9 mph12.7 kmh 29.50 in999.0 mb 0.00 in0.0 mm 0.00 in0.0 mm 0.05 in1.3 mm
11:40 PM 47.7°F8.7°C 35.7°F2.1°C 63% 6.4 mph W10.3 kmh W 7.9 mph12.7 kmh 29.47 in998.0 mb 0.00 in0.0 mm 0.00 in0.0 mm 0.05 in1.3 mm
11:50 PM 47.7°F8.7°C 35.3°F1.8°C 62% 4.4 mph NW7.1 kmh NW 5.4 mph8.7 kmh 29.47 in998.0 mb 0.00 in0.0 mm 0.00 in0.0 mm 0.05 in1.3 mm